sensor_id;sensor_type;location;lat;lon;timestamp;pressure;altitude;pressure_sealevel;temperature;humidity
46714;BME280;32445;51.376;10.874;2022-12-17T00:02:26;99880.91;;;-1.73;54.59
46714;BME280;32445;51.376;10.874;2022-12-17T00:05:45;99884.28;;;-1.72;54.83
46714;BME280;32445;51.376;10.874;2022-12-17T00:09:04;99883.50;;;-1.71;54.81
46714;BME280;32445;51.376;10.874;2022-12-17T00:12:23;99882.56;;;-1.74;54.71
46714;BME280;32445;51.376;10.874;2022-12-17T00:15:42;99884.28;;;-1.72;54.84
46714;BME280;32445;51.376;10.874;2022-12-17T00:19:07;99884.28;;;-1.72;54.82
46714;BME280;32445;51.376;10.874;2022-12-17T00:22:26;99890.31;;;-1.70;54.95
46714;BME280;32445;51.376;10.874;2022-12-17T00:25:49;99895.41;;;-1.70;54.87
46714;BME280;32445;51.376;10.874;2022-12-17T00:29:09;99895.50;;;-1.67;54.91
46714;BME280;32445;51.376;10.874;2022-12-17T00:32:28;99908.06;;;-1.72;55.14
46714;BME280;32445;51.376;10.874;2022-12-17T00:35:53;99904.53;;;-1.77;55.25
46714;BME280;32445;51.376;10.874;2022-12-17T00:39:13;99907.94;;;-1.77;55.39
46714;BME280;32445;51.376;10.874;2022-12-17T00:42:31;99915.59;;;-1.75;55.58
46714;BME280;32445;51.376;10.874;2022-12-17T00:45:50;99917.44;;;-1.71;55.37
46714;BME280;32445;51.376;10.874;2022-12-17T00:49:10;99917.47;;;-1.69;55.33
46714;BME280;32445;51.376;10.874;2022-12-17T00:52:28;99909.91;;;-1.66;55.21
46714;BME280;32445;51.376;10.874;2022-12-17T00:55:47;99921.03;;;-1.64;55.37
46714;BME280;32445;51.376;10.874;2022-12-17T00:59:17;99914.19;;;-1.65;54.93
46714;BME280;32445;51.376;10.874;2022-12-17T01:02:35;99919.34;;;-1.64;54.99
46714;BME280;32445;51.376;10.874;2022-12-17T01:05:54;99916.84;;;-1.62;55.18
46714;BME280;32445;51.376;10.874;2022-12-17T01:09:13;99921.13;;;-1.61;55.30
46714;BME280;32445;51.376;10.874;2022-12-17T01:12:32;99918.56;;;-1.61;55.31
46714;BME280;32445;51.376;10.874;2022-12-17T01:15:51;99921.88;;;-1.64;55.97
46714;BME280;32445;51.376;10.874;2022-12-17T01:19:10;99924.47;;;-1.62;55.49
46714;BME280;32445;51.376;10.874;2022-12-17T01:22:29;99926.25;;;-1.60;55.63
46714;BME280;32445;51.376;10.874;2022-12-17T01:25:55;99922.84;;;-1.60;55.34
46714;BME280;32445;51.376;10.874;2022-12-17T01:29:15;99924.63;;;-1.58;55.38
46714;BME280;32445;51.376;10.874;2022-12-17T01:32:33;99934.81;;;-1.58;55.21
46714;BME280;32445;51.376;10.874;2022-12-17T01:35:56;99936.53;;;-1.57;55.03
46714;BME280;32445;51.376;10.874;2022-12-17T01:39:15;99928.88;;;-1.57;55.31
46714;BME280;32445;51.376;10.874;2022-12-17T01:42:43;99929.66;;;-1.59;55.47
46714;BME280;32445;51.376;10.874;2022-12-17T01:46:02;99936.44;;;-1.60;54.99
46714;BME280;32445;51.376;10.874;2022-12-17T01:49:24;99939.75;;;-1.62;54.90
46714;BME280;32445;51.376;10.874;2022-12-17T01:52:44;99943.94;;;-1.64;55.01
46714;BME280;32445;51.376;10.874;2022-12-17T01:56:03;99936.22;;;-1.67;54.88
46714;BME280;32445;51.376;10.874;2022-12-17T01:59:29;99942.06;;;-1.70;54.89
46714;BME280;32445;51.376;10.874;2022-12-17T02:02:50;99949.63;;;-1.73;54.68
46714;BME280;32445;51.376;10.874;2022-12-17T02:09:47;99964.63;;;-1.81;54.66
46714;BME280;32445;51.376;10.874;2022-12-17T02:16:37;99966.22;;;-1.84;54.97
46714;BME280;32445;51.376;10.874;2022-12-17T02:27:16;99971.94;;;-1.92;54.51
46714;BME280;32445;51.376;10.874;2022-12-17T02:30:36;99974.41;;;-1.95;54.66
46714;BME280;32445;51.376;10.874;2022-12-17T02:33:56;99967.53;;;-1.97;54.42
46714;BME280;32445;51.376;10.874;2022-12-17T02:37:17;99965.78;;;-1.98;54.57
46714;BME280;32445;51.376;10.874;2022-12-17T02:40:36;99971.63;;;-2.01;54.29
46714;BME280;32445;51.376;10.874;2022-12-17T02:43:57;99975.81;;;-2.03;54.88
46714;BME280;32445;51.376;10.874;2022-12-17T02:47:18;99972.34;;;-2.05;54.77
46714;BME280;32445;51.376;10.874;2022-12-17T02:50:38;99975.69;;;-2.07;54.48
46714;BME280;32445;51.376;10.874;2022-12-17T02:54:00;99973.03;;;-2.11;54.49
46714;BME280;32445;51.376;10.874;2022-12-17T02:57:19;99988.31;;;-2.11;54.60
46714;BME280;32445;51.376;10.874;2022-12-17T03:00:38;99993.31;;;-2.12;54.30
46714;BME280;32445;51.376;10.874;2022-12-17T03:03:57;99992.38;;;-2.16;54.25
46714;BME280;32445;51.376;10.874;2022-12-17T03:07:16;99998.22;;;-2.18;54.34
46714;BME280;32445;51.376;10.874;2022-12-17T03:10:35;100000.72;;;-2.20;54.47
46714;BME280;32445;51.376;10.874;2022-12-17T03:13:54;100001.47;;;-2.22;54.72
46714;BME280;32445;51.376;10.874;2022-12-17T03:17:13;100000.56;;;-2.24;54.47
46714;BME280;32445;51.376;10.874;2022-12-17T03:20:31;100003.84;;;-2.27;54.66
46714;BME280;32445;51.376;10.874;2022-12-17T03:23:50;100008.09;;;-2.28;54.48
46714;BME280;32445;51.376;10.874;2022-12-17T03:27:09;100000.41;;;-2.29;54.58
46714;BME280;32445;51.376;10.874;2022-12-17T03:30:28;99996.97;;;-2.30;54.61
46714;BME280;32445;51.376;10.874;2022-12-17T03:33:46;100010.53;;;-2.31;55.14
46714;BME280;32445;51.376;10.874;2022-12-17T03:37:06;100009.66;;;-2.31;55.00
46714;BME280;32445;51.376;10.874;2022-12-17T03:40:25;100012.16;;;-2.33;55.09
46714;BME280;32445;51.376;10.874;2022-12-17T03:43:44;100010.41;;;-2.34;54.94
46714;BME280;32445;51.376;10.874;2022-12-17T03:47:04;100021.41;;;-2.35;54.73
46714;BME280;32445;51.376;10.874;2022-12-17T03:50:28;100023.91;;;-2.36;54.65
46714;BME280;32445;51.376;10.874;2022-12-17T03:53:47;100023.03;;;-2.37;54.85
46714;BME280;32445;51.376;10.874;2022-12-17T03:57:06;100027.31;;;-2.36;54.96
46714;BME280;32445;51.376;10.874;2022-12-17T04:00:25;100031.44;;;-2.38;55.05
46714;BME280;32445;51.376;10.874;2022-12-17T04:03:43;100038.13;;;-2.41;54.90
46714;BME280;32445;51.376;10.874;2022-12-17T04:07:02;100034.38;;;-2.51;55.78
46714;BME280;32445;51.376;10.874;2022-12-17T04:10:21;100039.31;;;-2.56;55.86
46714;BME280;32445;51.376;10.874;2022-12-17T04:13:40;100040.28;;;-2.52;56.08
46714;BME280;32445;51.376;10.874;2022-12-17T04:16:58;100046.34;;;-2.49;55.77
46714;BME280;32445;51.376;10.874;2022-12-17T04:20:17;100044.72;;;-2.47;55.71
46714;BME280;32445;51.376;10.874;2022-12-17T04:23:36;100047.50;;;-2.40;55.60
46714;BME280;32445;51.376;10.874;2022-12-17T04:26:55;100044.91;;;-2.42;55.48
46714;BME280;32445;51.376;10.874;2022-12-17T04:30:14;100050.63;;;-2.48;56.11
46714;BME280;32445;51.376;10.874;2022-12-17T04:33:33;100044.56;;;-2.51;56.40
46714;BME280;32445;51.376;10.874;2022-12-17T04:36:51;100055.72;;;-2.48;56.10
46714;BME280;32445;51.376;10.874;2022-12-17T04:40:11;100063.53;;;-2.41;55.70
46714;BME280;32445;51.376;10.874;2022-12-17T04:43:29;100062.03;;;-2.36;55.71
46714;BME280;32445;51.376;10.874;2022-12-17T04:46:48;100063.00;;;-2.33;55.84
46714;BME280;32445;51.376;10.874;2022-12-17T04:50:07;100060.34;;;-2.36;55.54
46714;BME280;32445;51.376;10.874;2022-12-17T04:53:26;100068.09;;;-2.33;55.44
46714;BME280;32445;51.376;10.874;2022-12-17T04:56:44;100078.09;;;-2.37;55.98
46714;BME280;32445;51.376;10.874;2022-12-17T05:00:04;100077.16;;;-2.39;56.31
46714;BME280;32445;51.376;10.874;2022-12-17T05:03:23;100077.31;;;-2.36;56.09
46714;BME280;32445;51.376;10.874;2022-12-17T05:06:42;100083.44;;;-2.30;56.01
46714;BME280;32445;51.376;10.874;2022-12-17T05:10:01;100091.22;;;-2.25;55.99
46714;BME280;32445;51.376;10.874;2022-12-17T05:13:20;100077.66;;;-2.26;55.68
46714;BME280;32445;51.376;10.874;2022-12-17T05:16:39;100088.69;;;-2.25;56.19
46714;BME280;32445;51.376;10.874;2022-12-17T05:19:58;100087.84;;;-2.26;55.88
46714;BME280;32445;51.376;10.874;2022-12-17T05:23:17;100090.38;;;-2.26;55.87
46714;BME280;32445;51.376;10.874;2022-12-17T05:26:36;100085.28;;;-2.26;55.79
46714;BME280;32445;51.376;10.874;2022-12-17T05:29:54;100090.47;;;-2.22;56.01
46714;BME280;32445;51.376;10.874;2022-12-17T05:33:13;100092.72;;;-2.32;56.46
46714;BME280;32445;51.376;10.874;2022-12-17T05:36:33;100092.56;;;-2.36;56.73
46714;BME280;32445;51.376;10.874;2022-12-17T05:39:51;100089.03;;;-2.40;57.38
46714;BME280;32445;51.376;10.874;2022-12-17T05:43:11;100099.91;;;-2.44;56.94
46714;BME280;32445;51.376;10.874;2022-12-17T05:46:31;100103.44;;;-2.40;56.73
46714;BME280;32445;51.376;10.874;2022-12-17T05:49:50;100105.38;;;-2.33;56.84
46714;BME280;32445;51.376;10.874;2022-12-17T05:53:08;100108.97;;;-2.27;56.56
46714;BME280;32445;51.376;10.874;2022-12-17T05:56:28;100109.22;;;-2.20;56.34
46714;BME280;32445;51.376;10.874;2022-12-17T05:59:47;100106.78;;;-2.17;56.00
46714;BME280;32445;51.376;10.874;2022-12-17T06:03:06;100102.44;;;-2.20;56.26
46714;BME280;32445;51.376;10.874;2022-12-17T06:06:26;100114.00;;;-2.28;56.14
46714;BME280;32445;51.376;10.874;2022-12-17T06:09:45;100116.75;;;-2.23;56.38
46714;BME280;32445;51.376;10.874;2022-12-17T06:13:03;100118.59;;;-2.18;55.86
46714;BME280;32445;51.376;10.874;2022-12-17T06:16:22;100123.78;;;-2.16;55.79
46714;BME280;32445;51.376;10.874;2022-12-17T06:19:41;100135.66;;;-2.15;55.67
46714;BME280;32445;51.376;10.874;2022-12-17T06:23:04;100143.47;;;-2.11;55.81
46714;BME280;32445;51.376;10.874;2022-12-17T06:26:24;100141.00;;;-2.09;55.87
46714;BME280;32445;51.376;10.874;2022-12-17T06:29:43;100154.59;;;-2.07;55.86
46714;BME280;32445;51.376;10.874;2022-12-17T06:33:06;100144.44;;;-2.07;55.58
46714;BME280;32445;51.376;10.874;2022-12-17T06:36:25;100156.31;;;-2.07;55.67
46714;BME280;32445;51.376;10.874;2022-12-17T06:39:44;100163.16;;;-2.05;55.70
46714;BME280;32445;51.376;10.874;2022-12-17T06:43:03;100170.03;;;-2.02;55.41
46714;BME280;32445;51.376;10.874;2022-12-17T06:46:22;100174.91;;;-2.09;56.05
46714;BME280;32445;51.376;10.874;2022-12-17T06:49:41;100172.41;;;-2.07;55.74
46714;BME280;32445;51.376;10.874;2022-12-17T06:53:05;100179.34;;;-2.03;55.90
46714;BME280;32445;51.376;10.874;2022-12-17T06:56:24;100187.94;;;-1.99;55.62
46714;BME280;32445;51.376;10.874;2022-12-17T06:59:43;100184.53;;;-2.00;55.43
46714;BME280;32445;51.376;10.874;2022-12-17T07:03:04;100191.31;;;-2.00;55.48
46714;BME280;32445;51.376;10.874;2022-12-17T07:06:23;100199.91;;;-1.97;55.55
46714;BME280;32445;51.376;10.874;2022-12-17T07:09:42;100200.84;;;-1.95;55.79
46714;BME280;32445;51.376;10.874;2022-12-17T07:13:05;100210.94;;;-1.98;55.70
46714;BME280;32445;51.376;10.874;2022-12-17T07:16:24;100212.63;;;-1.97;55.60
46714;BME280;32445;51.376;10.874;2022-12-17T07:19:45;100216.91;;;-1.96;55.62
46714;BME280;32445;51.376;10.874;2022-12-17T07:23:04;100218.72;;;-1.93;55.52
46714;BME280;32445;51.376;10.874;2022-12-17T07:26:37;100218.81;;;-1.90;55.57
46714;BME280;32445;51.376;10.874;2022-12-17T07:29:56;100212.03;;;-1.89;55.01
46714;BME280;32445;51.376;10.874;2022-12-17T07:33:15;100222.28;;;-1.88;55.20
46714;BME280;32445;51.376;10.874;2022-12-17T07:36:35;100235.94;;;-1.86;55.34
46714;BME280;32445;51.376;10.874;2022-12-17T07:39:54;100230.84;;;-1.86;55.40
46714;BME280;32445;51.376;10.874;2022-12-17T07:43:13;100239.38;;;-1.84;55.48
46714;BME280;32445;51.376;10.874;2022-12-17T07:46:32;100234.19;;;-1.87;55.83
46714;BME280;32445;51.376;10.874;2022-12-17T07:49:51;100243.63;;;-1.84;55.15
46714;BME280;32445;51.376;10.874;2022-12-17T07:53:10;100243.63;;;-1.84;55.42
46714;BME280;32445;51.376;10.874;2022-12-17T07:56:29;100243.50;;;-1.87;56.16
46714;BME280;32445;51.376;10.874;2022-12-17T07:59:48;100254.44;;;-1.90;55.99
46714;BME280;32445;51.376;10.874;2022-12-17T08:03:07;100276.66;;;-1.86;55.74
46714;BME280;32445;51.376;10.874;2022-12-17T08:06:26;100274.28;;;-1.81;55.80
46714;BME280;32445;51.376;10.874;2022-12-17T08:09:45;100282.91;;;-1.78;55.63
46714;BME280;32445;51.376;10.874;2022-12-17T08:13:04;100284.59;;;-1.77;55.70
46714;BME280;32445;51.376;10.874;2022-12-17T08:16:23;100280.34;;;-1.78;56.21
46714;BME280;32445;51.376;10.874;2022-12-17T08:19:42;100280.47;;;-1.75;56.11
46714;BME280;32445;51.376;10.874;2022-12-17T08:23:11;100280.50;;;-1.73;55.71
46714;BME280;32445;51.376;10.874;2022-12-17T08:26:50;100292.41;;;-1.72;56.14
46714;BME280;32445;51.376;10.874;2022-12-17T08:30:10;100293.44;;;-1.67;56.34
46714;BME280;32445;51.376;10.874;2022-12-17T08:33:28;100293.56;;;-1.64;55.94
46714;BME280;32445;51.376;10.874;2022-12-17T08:36:48;100286.97;;;-1.59;55.85
46714;BME280;32445;51.376;10.874;2022-12-17T08:40:07;100296.38;;;-1.56;56.01
46714;BME280;32445;51.376;10.874;2022-12-17T08:43:26;100304.09;;;-1.54;56.46
46714;BME280;32445;51.376;10.874;2022-12-17T08:46:45;100305.75;;;-1.55;56.01
46714;BME280;32445;51.376;10.874;2022-12-17T08:50:05;100305.03;;;-1.51;56.23
46714;BME280;32445;51.376;10.874;2022-12-17T08:53:24;100315.34;;;-1.48;56.12
46714;BME280;32445;51.376;10.874;2022-12-17T08:56:43;100318.81;;;-1.46;55.89
46714;BME280;32445;51.376;10.874;2022-12-17T09:00:02;100321.53;;;-1.41;56.16
46714;BME280;32445;51.376;10.874;2022-12-17T09:03:23;100323.41;;;-1.35;56.06
46714;BME280;32445;51.376;10.874;2022-12-17T09:06:42;100323.56;;;-1.31;56.03
46714;BME280;32445;51.376;10.874;2022-12-17T09:10:02;100321.88;;;-1.32;56.16
46714;BME280;32445;51.376;10.874;2022-12-17T09:13:21;100326.13;;;-1.31;56.32
46714;BME280;32445;51.376;10.874;2022-12-17T09:16:40;100332.31;;;-1.24;56.46
46714;BME280;32445;51.376;10.874;2022-12-17T09:20:00;100338.50;;;-1.17;56.22
46714;BME280;32445;51.376;10.874;2022-12-17T09:23:19;100342.03;;;-1.12;56.48
46714;BME280;32445;51.376;10.874;2022-12-17T09:26:38;100340.50;;;-1.09;56.07
46714;BME280;32445;51.376;10.874;2022-12-17T09:29:57;100336.34;;;-1.05;56.55
46714;BME280;32445;51.376;10.874;2022-12-17T09:33:17;100338.25;;;-0.99;56.49
46714;BME280;32445;51.376;10.874;2022-12-17T09:36:36;100340.88;;;-0.96;56.67
46714;BME280;32445;51.376;10.874;2022-12-17T09:39:55;100336.78;;;-0.93;56.63
46714;BME280;32445;51.376;10.874;2022-12-17T09:43:20;100346.97;;;-0.93;56.69
46714;BME280;32445;51.376;10.874;2022-12-17T09:50:15;100355.84;;;-0.81;56.63
46714;BME280;32445;51.376;10.874;2022-12-17T09:53:42;100346.59;;;-0.78;56.89
46714;BME280;32445;51.376;10.874;2022-12-17T09:57:02;100362.13;;;-0.72;56.26
46714;BME280;32445;51.376;10.874;2022-12-17T10:00:25;100353.88;;;-0.64;56.47
46714;BME280;32445;51.376;10.874;2022-12-17T10:03:45;100352.34;;;-0.58;56.41
46714;BME280;32445;51.376;10.874;2022-12-17T10:07:14;100354.19;;;-0.54;56.58
46714;BME280;32445;51.376;10.874;2022-12-17T10:10:40;100362.03;;;-0.47;56.78
46714;BME280;32445;51.376;10.874;2022-12-17T10:14:03;100359.69;;;-0.41;56.40
46714;BME280;32445;51.376;10.874;2022-12-17T10:17:27;100364.91;;;-0.38;56.37
46714;BME280;32445;51.376;10.874;2022-12-17T10:20:56;100360.69;;;-0.36;56.53
46714;BME280;32445;51.376;10.874;2022-12-17T10:24:16;100361.81;;;-0.28;56.64
46714;BME280;32445;51.376;10.874;2022-12-17T10:27:34;100368.00;;;-0.21;56.73
46714;BME280;32445;51.376;10.874;2022-12-17T10:30:53;100375.72;;;-0.18;56.55
46714;BME280;32445;51.376;10.874;2022-12-17T10:34:19;100373.19;;;-0.18;56.58
46714;BME280;32445;51.376;10.874;2022-12-17T10:37:39;100370.81;;;-0.12;56.71
46714;BME280;32445;51.376;10.874;2022-12-17T10:41:01;100373.63;;;-0.04;56.59
46714;BME280;32445;51.376;10.874;2022-12-17T10:44:32;100379.75;;;0.03;56.55
46714;BME280;32445;51.376;10.874;2022-12-17T10:47:51;100385.97;;;0.11;56.54
46714;BME280;32445;51.376;10.874;2022-12-17T10:51:26;100375.91;;;0.15;56.12
46714;BME280;32445;51.376;10.874;2022-12-17T10:54:59;100387.16;;;0.22;56.31
46714;BME280;32445;51.376;10.874;2022-12-17T11:01:39;100392.69;;;0.36;56.32
46714;BME280;32445;51.376;10.874;2022-12-17T11:05:02;100397.06;;;0.40;56.51
46714;BME280;32445;51.376;10.874;2022-12-17T11:08:21;100398.88;;;0.44;56.06
46714;BME280;32445;51.376;10.874;2022-12-17T11:11:41;100391.38;;;0.49;55.69
46714;BME280;32445;51.376;10.874;2022-12-17T11:15:14;100393.28;;;0.56;56.13
46714;BME280;32445;51.376;10.874;2022-12-17T11:19:07;100396.75;;;0.60;56.18
46714;BME280;32445;51.376;10.874;2022-12-17T11:22:51;100395.22;;;0.65;55.74
46714;BME280;32445;51.376;10.874;2022-12-17T11:26:13;100396.34;;;0.75;56.00
46714;BME280;32445;51.376;10.874;2022-12-17T11:29:34;100397.28;;;0.78;55.99
46714;BME280;32445;51.376;10.874;2022-12-17T11:36:26;100401.81;;;0.89;55.80
46714;BME280;32445;51.376;10.874;2022-12-17T11:39:53;100399.41;;;0.93;55.98
46714;BME280;32445;51.376;10.874;2022-12-17T11:43:39;100404.69;;;0.99;55.75
46714;BME280;32445;51.376;10.874;2022-12-17T11:50:53;100413.41;;;1.06;56.47
46714;BME280;32445;51.376;10.874;2022-12-17T11:54:39;100408.44;;;1.12;56.34
46714;BME280;32445;51.376;10.874;2022-12-17T11:58:05;100405.22;;;1.19;56.14
46714;BME280;32445;51.376;10.874;2022-12-17T12:01:32;100414.88;;;1.30;55.51
46714;BME280;32445;51.376;10.874;2022-12-17T12:05:00;100416.69;;;1.34;56.05
46714;BME280;32445;51.376;10.874;2022-12-17T12:08:26;100409.19;;;1.42;55.79
46714;BME280;32445;51.376;10.874;2022-12-17T12:12:31;100410.25;;;1.50;56.33
46714;BME280;32445;51.376;10.874;2022-12-17T12:19:19;100410.50;;;1.59;55.48
46714;BME280;32445;51.376;10.874;2022-12-17T12:22:55;100413.16;;;1.64;55.45
46714;BME280;32445;51.376;10.874;2022-12-17T12:26:31;100413.34;;;1.71;55.98
46714;BME280;32445;51.376;10.874;2022-12-17T12:30:02;100410.16;;;1.82;56.47
46714;BME280;32445;51.376;10.874;2022-12-17T12:36:54;100399.56;;;2.03;56.54
46714;BME280;32445;51.376;10.874;2022-12-17T12:40:30;100397.28;;;2.14;56.18
46714;BME280;32445;51.376;10.874;2022-12-17T12:43:54;100405.16;;;2.23;56.74
46714;BME280;32445;51.376;10.874;2022-12-17T12:47:24;100406.25;;;2.34;56.78
46714;BME280;32445;51.376;10.874;2022-12-17T12:58:26;100411.34;;;2.72;57.05
46714;BME280;32445;51.376;10.874;2022-12-17T13:01:45;100412.50;;;2.88;57.82
46714;BME280;32445;51.376;10.874;2022-12-17T13:08:34;100407.84;;;3.15;57.77
46714;BME280;32445;51.376;10.874;2022-12-17T13:11:37;100411.50;;;3.26;57.71
46714;BME280;32445;51.376;10.874;2022-12-17T13:14:46;100417.72;;;3.39;57.20
46714;BME280;32445;51.376;10.874;2022-12-17T13:24:25;100420.88;;;3.73;56.83
46714;BME280;32445;51.376;10.874;2022-12-17T13:30:35;100420.38;;;3.95;57.05
46714;BME280;32445;51.376;10.874;2022-12-17T13:33:59;100426.50;;;4.05;56.54
46714;BME280;32445;51.376;10.874;2022-12-17T13:37:16;100427.53;;;4.18;56.61
46714;BME280;32445;51.376;10.874;2022-12-17T13:40:33;100426.00;;;4.29;56.26
46714;BME280;32445;51.376;10.874;2022-12-17T13:43:51;100430.38;;;4.38;56.37
46714;BME280;32445;51.376;10.874;2022-12-17T13:46:53;100432.28;;;4.50;56.20
46714;BME280;32445;51.376;10.874;2022-12-17T13:49:55;100435.81;;;4.60;55.96
46714;BME280;32445;51.376;10.874;2022-12-17T13:53:07;100440.19;;;4.65;55.45
46714;BME280;32445;51.376;10.874;2022-12-17T13:56:09;100449.72;;;4.74;55.37
46714;BME280;32445;51.376;10.874;2022-12-17T13:59:36;100448.09;;;4.81;55.55
46714;BME280;32445;51.376;10.874;2022-12-17T14:02:37;100450.84;;;4.93;56.14
46714;BME280;32445;51.376;10.874;2022-12-17T14:05:42;100455.25;;;5.03;56.17
46714;BME280;32445;51.376;10.874;2022-12-17T14:08:45;100453.66;;;5.13;56.18
46714;BME280;32445;51.376;10.874;2022-12-17T14:11:47;100464.03;;;5.23;56.03
46714;BME280;32445;51.376;10.874;2022-12-17T14:18:19;100457.34;;;5.40;56.25
46714;BME280;32445;51.376;10.874;2022-12-17T14:21:21;100470.31;;;5.48;56.48
46714;BME280;32445;51.376;10.874;2022-12-17T14:24:23;100467.81;;;5.55;55.83
46714;BME280;32445;51.376;10.874;2022-12-17T14:27:33;100473.03;;;5.62;54.82
46714;BME280;32445;51.376;10.874;2022-12-17T14:33:37;100479.97;;;5.67;53.59
46714;BME280;32445;51.376;10.874;2022-12-17T14:36:40;100477.38;;;5.67;53.19
46714;BME280;32445;51.376;10.874;2022-12-17T14:39:43;100479.91;;;5.64;52.23
46714;BME280;32445;51.376;10.874;2022-12-17T14:42:44;100488.50;;;5.63;51.88
46714;BME280;32445;51.376;10.874;2022-12-17T14:45:54;100488.41;;;5.55;51.31
46714;BME280;32445;51.376;10.874;2022-12-17T14:49:19;100494.34;;;5.50;51.19
46714;BME280;32445;51.376;10.874;2022-12-17T14:52:48;100502.84;;;5.41;50.22
46714;BME280;32445;51.376;10.874;2022-12-17T14:55:57;100504.47;;;5.33;50.61
46714;BME280;32445;51.376;10.874;2022-12-17T14:58:57;100502.66;;;5.26;50.28
46714;BME280;32445;51.376;10.874;2022-12-17T15:02:02;100498.28;;;5.17;50.00
46714;BME280;32445;51.376;10.874;2022-12-17T15:05:03;100491.31;;;5.08;49.79
46714;BME280;32445;51.376;10.874;2022-12-17T15:08:04;100504.94;;;5.01;49.53
46714;BME280;32445;51.376;10.874;2022-12-17T15:11:05;100503.97;;;4.91;49.18
46714;BME280;32445;51.376;10.874;2022-12-17T15:14:05;100507.25;;;4.79;49.09
46714;BME280;32445;51.376;10.874;2022-12-17T15:17:06;100510.53;;;4.69;48.94
46714;BME280;32445;51.376;10.874;2022-12-17T15:20:08;100516.41;;;4.59;48.72
46714;BME280;32445;51.376;10.874;2022-12-17T15:23:19;100508.50;;;4.46;48.71
46714;BME280;32445;51.376;10.874;2022-12-17T15:26:19;100518.66;;;4.37;48.28
46714;BME280;32445;51.376;10.874;2022-12-17T15:29:20;100516.75;;;4.27;47.96
46714;BME280;32445;51.376;10.874;2022-12-17T15:32:22;100513.19;;;4.15;48.19
46714;BME280;32445;51.376;10.874;2022-12-17T15:35:23;100517.31;;;4.07;48.39
46714;BME280;32445;51.376;10.874;2022-12-17T15:38:23;100525.72;;;3.97;48.05
46714;BME280;32445;51.376;10.874;2022-12-17T15:41:24;100530.66;;;3.86;48.10
46714;BME280;32445;51.376;10.874;2022-12-17T15:44:53;100539.84;;;3.73;48.19
46714;BME280;32445;51.376;10.874;2022-12-17T15:47:54;100536.22;;;3.63;48.36
46714;BME280;32445;51.376;10.874;2022-12-17T15:50:54;100540.28;;;3.52;48.38
46714;BME280;32445;51.376;10.874;2022-12-17T15:53:54;100541.81;;;3.42;48.23
46714;BME280;32445;51.376;10.874;2022-12-17T15:56:55;100541.59;;;3.30;47.95
46714;BME280;32445;51.376;10.874;2022-12-17T15:59:57;100547.38;;;3.20;48.76
46714;BME280;32445;51.376;10.874;2022-12-17T16:02:57;100547.97;;;3.08;48.13
46714;BME280;32445;51.376;10.874;2022-12-17T16:06:00;100549.50;;;2.98;47.99
46714;BME280;32445;51.376;10.874;2022-12-17T16:09:00;100549.25;;;2.87;48.13
46714;BME280;32445;51.376;10.874;2022-12-17T16:12:01;100548.16;;;2.77;48.14
46714;BME280;32445;51.376;10.874;2022-12-17T16:15:01;100541.09;;;2.67;48.34
46714;BME280;32445;51.376;10.874;2022-12-17T16:18:02;100550.28;;;2.57;48.37
46714;BME280;32445;51.376;10.874;2022-12-17T16:21:07;100549.16;;;2.46;48.27
46714;BME280;32445;51.376;10.874;2022-12-17T16:24:07;100559.25;;;2.38;48.08
46714;BME280;32445;51.376;10.874;2022-12-17T16:27:09;100559.88;;;2.30;48.08
46714;BME280;32445;51.376;10.874;2022-12-17T16:30:10;100556.19;;;2.18;48.37
46714;BME280;32445;51.376;10.874;2022-12-17T16:33:11;100564.50;;;2.10;48.20
46714;BME280;32445;51.376;10.874;2022-12-17T16:36:13;100569.38;;;2.00;48.17
46714;BME280;32445;51.376;10.874;2022-12-17T16:39:16;100565.72;;;1.90;48.38
46714;BME280;32445;51.376;10.874;2022-12-17T16:42:16;100567.19;;;1.81;48.03
46714;BME280;32445;51.376;10.874;2022-12-17T16:45:17;100568.63;;;1.71;48.44
46714;BME280;32445;51.376;10.874;2022-12-17T16:48:18;100581.16;;;1.62;48.20
46714;BME280;32445;51.376;10.874;2022-12-17T16:51:20;100580.91;;;1.52;47.90
46714;BME280;32445;51.376;10.874;2022-12-17T16:54:23;100578.94;;;1.42;48.00
46714;BME280;32445;51.376;10.874;2022-12-17T16:57:25;100575.25;;;1.32;48.20
46714;BME280;32445;51.376;10.874;2022-12-17T17:00:25;100578.38;;;1.22;48.45
46714;BME280;32445;51.376;10.874;2022-12-17T17:03:25;100573.84;;;1.13;48.01
46714;BME280;32445;51.376;10.874;2022-12-17T17:06:26;100581.28;;;1.06;48.56
46714;BME280;32445;51.376;10.874;2022-12-17T17:09:26;100590.41;;;0.97;48.45
46714;BME280;32445;51.376;10.874;2022-12-17T17:12:27;100589.28;;;0.88;48.23
46714;BME280;32445;51.376;10.874;2022-12-17T17:15:27;100591.53;;;0.78;48.23
46714;BME280;32445;51.376;10.874;2022-12-17T17:18:27;100598.09;;;0.70;48.43
46714;BME280;32445;51.376;10.874;2022-12-17T17:24:29;100605.25;;;0.53;48.21
46714;BME280;32445;51.376;10.874;2022-12-17T17:27:30;100613.41;;;0.43;48.15
46714;BME280;32445;51.376;10.874;2022-12-17T17:30:33;100610.59;;;0.35;48.39
46714;BME280;32445;51.376;10.874;2022-12-17T17:33:35;100606.00;;;0.25;48.15
46714;BME280;32445;51.376;10.874;2022-12-17T17:36:36;100614.25;;;0.16;48.07
46714;BME280;32445;51.376;10.874;2022-12-17T17:39:37;100625.06;;;0.09;48.28
46714;BME280;32445;51.376;10.874;2022-12-17T17:42:37;100622.16;;;-0.01;48.38
46714;BME280;32445;51.376;10.874;2022-12-17T17:45:37;100618.41;;;-0.10;48.20
46714;BME280;32445;51.376;10.874;2022-12-17T17:48:39;100624.13;;;-0.18;48.55
46714;BME280;32445;51.376;10.874;2022-12-17T17:51:41;100617.81;;;-0.27;48.28
46714;BME280;32445;51.376;10.874;2022-12-17T17:54:42;100629.50;;;-0.34;48.92
46714;BME280;32445;51.376;10.874;2022-12-17T17:57:42;100632.66;;;-0.41;49.06
46714;BME280;32445;51.376;10.874;2022-12-17T18:00:43;100635.75;;;-0.50;48.62
46714;BME280;32445;51.376;10.874;2022-12-17T18:03:43;100637.13;;;-0.58;48.45
46714;BME280;32445;51.376;10.874;2022-12-17T18:06:45;100641.97;;;-0.66;48.16